Time;durP1;ratioP1;P1;durP2;ratioP2;P2;SDS_P1;SDS_P2;PMS_P1;PMS_P2;Temp;Humidity;BMP_temperature;BMP_pressure;BME280_temperature;BME280_humidity;BME280_pressure;Samples;Min_cycle;Max_cycle;Signal;HPM_P1;HPM_P2
2022/10/11 00:01:59;;;;;;;7.40;2.67;;;;;;;19.02;46.54;102388.16;5061027;28;20111;-66
2022/10/11 00:04:25;;;;;;;7.63;2.40;;;;;;;19.00;46.24;102384.75;5061079;28;20741;-64
2022/10/11 00:06:50;;;;;;;6.25;2.65;;;;;;;18.86;46.13;102367.09;5060978;28;20260;-66
2022/10/11 00:09:15;;;;;;;4.95;2.30;;;;;;;18.92;46.30;102379.94;5059262;28;20426;-66
2022/10/11 00:11:43;;;;;;;5.85;2.30;;;;;;;18.97;46.22;102385.78;5060803;28;20082;-64
2022/10/11 00:14:08;;;;;;;5.35;2.58;;;;;;;18.84;46.04;102369.00;5061103;28;20730;-65
2022/10/11 00:16:33;;;;;;;6.78;2.55;;;;;;;18.90;46.42;102379.19;5060887;28;20583;-64
2022/10/11 00:18:59;;;;;;;6.65;2.47;;;;;;;18.85;46.13;102373.34;5061116;28;20385;-64
2022/10/11 00:21:24;;;;;;;7.15;2.20;;;;;;;18.84;46.15;102372.47;5059417;28;20032;-64
2022/10/11 00:23:49;;;;;;;6.70;2.60;;;;;;;18.93;45.97;102391.34;5060713;28;20039;-64
2022/10/11 00:26:15;;;;;;;6.45;2.50;;;;;;;18.87;45.90;102379.38;5060770;28;20427;-66
2022/10/11 00:28:40;;;;;;;5.78;2.40;;;;;;;18.77;46.02;102370.25;5061022;28;20039;-65
2022/10/11 00:31:08;;;;;;;5.07;2.40;;;;;;;18.83;45.80;102383.09;5060708;28;20064;-64
2022/10/11 00:33:34;;;;;;;6.75;2.75;;;;;;;18.83;45.99;102383.97;5060758;28;20035;-64
2022/10/11 00:35:59;;;;;;;4.75;2.25;;;;;;;18.79;46.09;102384.25;5061051;28;20032;-63
2022/10/11 00:38:25;;;;;;;6.10;2.40;;;;;;;18.83;45.79;102391.03;5060423;28;20043;-63
2022/10/11 00:40:50;;;;;;;4.82;2.15;;;;;;;18.77;45.92;102392.25;5060704;28;20039;-63
2022/10/11 00:43:17;;;;;;;4.93;2.33;;;;;;;18.76;45.88;102393.19;5060693;28;20063;-63
2022/10/11 00:45:49;;;;;;;6.28;2.47;;;;;;;18.83;45.72;102415.66;5059959;28;20047;-66
2022/10/11 00:48:20;;;;;;;6.03;2.53;;;;;;;18.81;45.76;102403.47;5060438;28;20516;-65
2022/10/11 00:50:45;;;;;;;6.07;2.30;;;;;;;18.70;45.58;102390.06;5060983;28;20136;-64
2022/10/11 00:53:11;;;;;;;6.57;2.60;;;;;;;18.79;45.83;102408.00;5060316;28;20165;-66
2022/10/11 00:55:44;;;;;;;6.18;2.33;;;;;;;18.73;45.56;102403.94;5060712;28;20036;-63
2022/10/11 00:58:10;;;;;;;5.80;2.10;;;;;;;18.71;45.78;102397.91;5060790;28;20356;-65
2022/10/11 01:00:35;;;;;;;5.35;2.30;;;;;;;18.75;45.48;102404.69;5060306;28;20078;-65
2022/10/11 01:03:01;;;;;;;5.47;2.20;;;;;;;18.75;45.66;102411.75;5060609;28;20647;-66
2022/10/11 01:05:28;;;;;;;4.88;2.10;;;;;;;18.71;45.48;102407.59;5060330;28;20040;-66
2022/10/11 01:07:53;;;;;;;5.88;2.90;;;;;;;18.75;45.37;102417.03;5061727;28;20043;-65
2022/10/11 01:10:18;;;;;;;6.53;2.22;;;;;;;18.68;45.35;102411.28;5064416;28;20025;-65
2022/10/11 01:13:10;;;;;;;6.27;2.40;;;;;;;18.68;45.46;102412.13;5063928;28;20021;-66
2022/10/11 01:15:55;;;;;;;6.57;2.20;;;;;;;18.71;45.21;102416.38;5053383;28;20598;-66
2022/10/11 01:18:48;;;;;;;4.57;1.88;;;;;;;18.72;45.47;102419.88;5063991;28;20036;-65
2022/10/11 01:21:37;;;;;;;5.40;2.30;;;;;;;18.71;45.40;102423.44;5064247;28;21260;-65
2022/10/11 01:24:26;;;;;;;5.68;2.25;;;;;;;18.62;45.16;102412.47;5063347;28;20037;-64
2022/10/11 01:27:38;;;;;;;5.90;2.30;;;;;;;18.60;45.09;102409.09;5062588;28;20781;-65
2022/10/11 01:30:29;;;;;;;6.05;2.40;;;;;;;18.66;45.37;102421.94;5063473;28;20028;-65
2022/10/11 01:33:11;;;;;;;5.10;2.00;;;;;;;18.60;45.18;102410.88;5063594;28;20135;-64
2022/10/11 01:36:17;;;;;;;5.82;2.55;;;;;;;18.58;45.23;102418.91;5063999;28;20028;-64
2022/10/11 01:38:58;;;;;;;5.13;2.00;;;;;;;18.61;45.30;102417.84;5063618;28;20090;-64
2022/10/11 01:41:27;;;;;;;4.75;1.95;;;;;;;18.57;45.31;102417.19;5063953;28;20101;-64
2022/10/11 01:43:58;;;;;;;5.28;2.42;;;;;;;18.61;45.05;102428.41;5063682;28;20178;-64
2022/10/11 01:46:24;;;;;;;5.28;2.40;;;;;;;18.59;44.99;102425.84;5063646;28;20579;-64
2022/10/11 01:48:52;;;;;;;5.53;2.03;;;;;;;18.56;45.25;102423.41;5063402;28;20032;-64
2022/10/11 01:51:25;;;;;;;5.53;2.05;;;;;;;18.60;44.95;102427.56;5063503;28;20068;-64
2022/10/11 01:54:12;;;;;;;6.32;1.90;;;;;;;18.59;44.83;102432.94;5063167;28;20025;-67
2022/10/11 01:56:53;;;;;;;4.38;1.90;;;;;;;18.57;44.88;102425.09;5063246;28;20032;-67
2022/10/11 01:59:43;;;;;;;4.75;1.90;;;;;;;18.57;44.93;102430.38;5063165;28;20028;-64
2022/10/11 02:02:27;;;;;;;5.50;2.17;;;;;;;18.49;44.90;102425.53;5062979;28;20044;-64
2022/10/11 02:05:09;;;;;;;5.00;2.45;;;;;;;18.49;44.63;102424.72;5063149;28;20113;-63
2022/10/11 02:07:44;;;;;;;5.07;1.73;;;;;;;18.56;44.63;102446.31;5063004;28;20032;-66
2022/10/11 02:10:16;;;;;;;6.28;2.10;;;;;;;18.55;44.72;102442.84;5063066;28;20052;-64
2022/10/11 02:12:49;;;;;;;5.20;1.80;;;;;;;18.47;44.72;102431.88;5062688;28;20135;-65
2022/10/11 02:15:16;;;;;;;5.78;2.63;;;;;;;18.45;44.74;102428.44;5062943;28;20044;-64
2022/10/11 02:17:48;;;;;;;6.30;2.25;;;;;;;18.53;44.71;102446.50;5062840;28;20141;-63
2022/10/11 02:20:18;;;;;;;4.80;1.92;;;;;;;18.46;44.84;102440.72;5061781;28;20040;-64
2022/10/11 02:22:45;;;;;;;5.18;2.05;;;;;;;18.46;44.55;102435.44;5062438;28;20063;-64
2022/10/11 02:25:16;;;;;;;5.50;2.15;;;;;;;18.50;44.63;102447.53;5062837;28;20029;-64
2022/10/11 02:27:46;;;;;;;4.95;1.90;;;;;;;18.43;44.38;102439.09;5062371;28;21084;-65
2022/10/11 02:30:13;;;;;;;4.72;2.42;;;;;;;18.49;44.60;102444.03;5062834;28;20093;-64
2022/10/11 02:32:42;;;;;;;7.00;2.50;;;;;;;18.49;44.55;102448.47;5062683;28;20138;-64
2022/10/11 02:35:08;;;;;;;5.20;2.33;;;;;;;18.26;44.44;102412.81;5062708;28;20028;-67
2022/10/11 02:38:12;;;;;;;5.25;2.17;;;;;;;18.48;44.38;102446.75;5062287;28;20039;-64
2022/10/11 02:40:43;;;;;;;4.15;1.70;;;;;;;18.38;44.34;102433.22;5039472;28;20220;-65
2022/10/11 02:43:26;;;;;;;5.55;2.15;;;;;;;18.45;44.31;102455.72;5039887;28;20037;-66
2022/10/11 02:45:58;;;;;;;8.13;2.00;;;;;;;18.38;44.21;102437.69;5053744;28;20087;-63
2022/10/11 02:48:26;;;;;;;5.70;2.00;;;;;;;18.41;44.41;102445.41;5062196;28;20514;-65
2022/10/11 02:50:52;;;;;;;5.75;1.95;;;;;;;18.38;44.36;102440.31;5062305;28;20535;-66
2022/10/11 02:53:19;;;;;;;5.03;2.13;;;;;;;18.41;44.26;102443.63;5061992;28;20126;-67
2022/10/11 02:55:45;;;;;;;4.15;1.75;;;;;;;18.38;44.34;102438.50;5061795;28;20043;-65
2022/10/11 02:58:11;;;;;;;5.15;2.03;;;;;;;18.28;44.35;102426.78;5062043;28;20028;-65
2022/10/11 03:00:36;;;;;;;5.47;2.13;;;;;;;18.31;44.21;102430.09;5062058;28;20040;-65
2022/10/11 03:03:01;;;;;;;5.60;1.98;;;;;;;18.38;44.12;102443.78;5061941;28;20257;-66
2022/10/11 03:05:27;;;;;;;4.30;1.73;;;;;;;18.37;44.13;102444.72;5061984;28;20028;-66
2022/10/11 03:07:52;;;;;;;4.18;1.60;;;;;;;18.38;44.14;102454.34;5061860;28;20350;-65
2022/10/11 03:10:17;;;;;;;5.03;1.80;;;;;;;18.37;44.03;102454.44;5061851;28;20119;-66
2022/10/11 03:12:42;;;;;;;5.13;1.77;;;;;;;18.37;43.99;102457.06;5061387;28;20737;-64
2022/10/11 03:15:08;;;;;;;5.72;2.10;;;;;;;18.34;44.18;102447.56;5061818;28;20040;-65
2022/10/11 03:17:33;;;;;;;4.75;1.67;;;;;;;18.35;43.93;102451.88;5061641;28;20041;-66
2022/10/11 03:19:59;;;;;;;4.10;1.70;;;;;;;18.38;44.23;102457.00;5061600;28;20060;-65
2022/10/11 03:22:24;;;;;;;3.72;1.67;;;;;;;18.39;43.72;102456.06;5061408;28;20273;-65
2022/10/11 03:24:49;;;;;;;5.85;2.00;;;;;;;18.41;43.95;102463.91;5061393;28;20051;-66
2022/10/11 03:27:14;;;;;;;4.90;2.07;;;;;;;18.32;43.73;102449.41;5061495;28;20049;-66
2022/10/11 03:29:40;;;;;;;4.82;1.85;;;;;;;18.40;43.61;102456.91;5061626;28;20348;-65
2022/10/11 03:32:05;;;;;;;5.15;1.85;;;;;;;18.40;44.04;102462.19;5060890;28;20032;-66
2022/10/11 03:34:31;;;;;;;4.43;1.85;;;;;;;18.39;43.78;102461.34;5061796;28;20032;-68
2022/10/11 03:36:56;;;;;;;5.45;1.98;;;;;;;18.31;43.63;102455.66;5061576;28;20132;-65
2022/10/11 03:39:21;;;;;;;3.93;1.80;;;;;;;18.31;43.68;102460.94;5061629;28;20428;-67
2022/10/11 03:41:46;;;;;;;3.92;1.67;;;;;;;18.31;43.74;102461.78;5061425;28;20265;-65
2022/10/11 03:44:12;;;;;;;4.47;1.70;;;;;;;18.29;43.62;102458.38;5059959;28;20087;-65
2022/10/11 03:46:37;;;;;;;4.22;1.70;;;;;;;18.36;43.65;102468.56;5061023;28;20294;-68
2022/10/11 03:49:02;;;;;;;4.47;1.80;;;;;;;18.27;43.57;102465.50;5061406;28;20036;-65
2022/10/11 03:51:28;;;;;;;4.47;1.85;;;;;;;18.29;43.50;102470.69;5061474;28;20044;-65
2022/10/11 03:53:53;;;;;;;3.00;1.33;;;;;;;18.29;43.59;102471.56;5061123;28;20968;-66
2022/10/11 03:56:19;;;;;;;3.53;1.57;;;;;;;18.33;43.59;102479.31;5061345;28;20062;-66
2022/10/11 03:58:44;;;;;;;5.20;1.83;;;;;;;18.32;43.53;102478.44;5061145;28;20368;-61
2022/10/11 04:01:09;;;;;;;4.95;1.80;;;;;;;18.31;43.60;102477.59;5061180;28;20257;-66
2022/10/11 04:03:34;;;;;;;4.47;1.73;;;;;;;18.34;43.54;102487.16;5061011;28;20037;-66
2022/10/11 04:06:00;;;;;;;4.95;1.90;;;;;;;18.18;43.43;102466.03;5061310;28;20686;-67
2022/10/11 04:08:25;;;;;;;4.63;1.95;;;;;;;18.34;43.66;102487.16;5060876;28;20033;-65
2022/10/11 04:10:50;;;;;;;4.22;1.95;;;;;;;18.34;43.11;102488.94;5061383;28;20074;-64
2022/10/11 04:13:16;;;;;;;3.90;1.90;;;;;;;18.28;43.10;102476.94;5061162;28;20036;-65
2022/10/11 04:15:41;;;;;;;5.50;1.67;;;;;;;18.23;43.45;102471.91;5061127;28;20060;-65
2022/10/11 04:18:07;;;;;;;4.80;1.80;;;;;;;18.31;43.23;102489.97;5060980;28;20086;-65
2022/10/11 04:20:33;;;;;;;4.22;1.83;;;;;;;18.28;43.41;102484.84;5061474;28;20035;-64
2022/10/11 04:22:58;;;;;;;4.28;1.63;;;;;;;18.22;43.33;102479.91;5060656;28;20028;-65
2022/10/11 04:25:23;;;;;;;4.60;1.90;;;;;;;18.28;43.08;102493.63;5059562;28;20025;-62
2022/10/11 04:27:49;;;;;;;3.53;1.60;;;;;;;18.21;43.07;102486.97;5060695;28;20131;-65
2022/10/11 04:30:15;;;;;;;5.28;2.00;;;;;;;18.25;43.31;102493.78;5060938;28;20032;-66
2022/10/11 04:32:40;;;;;;;3.90;1.80;;;;;;;18.22;42.90;102488.69;5060870;28;20028;-64
2022/10/11 04:35:06;;;;;;;3.85;1.60;;;;;;;18.24;43.29;102499.16;5061095;28;20036;-64
2022/10/11 04:37:32;;;;;;;4.25;1.50;;;;;;;18.29;42.78;102508.53;5060813;28;20020;-65
2022/10/11 04:39:57;;;;;;;5.35;1.90;;;;;;;18.27;42.89;102504.25;5061312;28;20051;-65
2022/10/11 04:42:22;;;;;;;4.20;1.60;;;;;;;18.24;43.03;102494.72;5060744;28;20025;-65
2022/10/11 04:44:47;;;;;;;3.92;1.60;;;;;;;18.22;43.20;102495.75;5064910;28;20281;-64
2022/10/11 04:47:13;;;;;;;4.78;1.50;;;;;;;18.23;42.81;102505.34;5064777;28;20037;-64
2022/10/11 04:49:38;;;;;;;5.13;2.05;;;;;;;18.27;42.82;102514.81;5064936;28;20041;-64
2022/10/11 04:52:03;;;;;;;3.85;1.60;;;;;;;18.20;42.99;102502.88;5064460;28;20078;-65
2022/10/11 04:54:29;;;;;;;3.97;1.77;;;;;;;18.23;42.70;102516.78;5064757;28;20028;-65
2022/10/11 04:56:54;;;;;;;5.22;1.88;;;;;;;18.19;42.80;102511.75;5064675;28;20990;-63
2022/10/11 04:59:19;;;;;;;4.25;1.65;;;;;;;18.18;42.88;102505.59;5064635;28;20361;-65
2022/10/11 05:01:45;;;;;;;4.90;2.05;;;;;;;18.18;43.03;102512.69;5064461;28;20036;-64
2022/10/11 05:04:10;;;;;;;5.03;1.65;;;;;;;18.23;42.64;102516.78;5064344;28;20594;-64
2022/10/11 05:06:35;;;;;;;3.95;1.65;;;;;;;18.23;42.68;102524.69;5064275;28;20033;-65
2022/10/11 05:09:00;;;;;;;3.92;1.60;;;;;;;18.22;42.75;102517.72;5063169;28;20467;-65
2022/10/11 05:11:26;;;;;;;7.10;2.13;;;;;;;18.17;42.74;102511.00;5064447;28;20032;-64
2022/10/11 05:13:51;;;;;;;4.30;1.60;;;;;;;18.17;42.61;102516.28;5064704;28;21276;-66
2022/10/11 05:16:17;;;;;;;5.05;2.05;;;;;;;18.23;42.43;102524.69;5064059;28;20490;-65
2022/10/11 05:18:42;;;;;;;4.05;1.67;;;;;;;18.19;42.60;102517.03;5063897;28;20443;-64
2022/10/11 05:21:16;;;;;;;3.90;1.58;;;;;;;18.18;42.82;102515.31;5063943;28;20071;-64
2022/10/11 05:23:42;;;;;;;6.32;1.80;;;;;;;18.21;42.55;102517.78;5064024;28;20036;-66
2022/10/11 05:26:07;;;;;;;4.28;1.63;;;;;;;18.25;42.69;102525.47;5063999;28;20041;-64
2022/10/11 05:28:33;;;;;;;5.88;1.70;;;;;;;18.22;42.50;102516.88;5064001;28;20036;-64
2022/10/11 05:31:00;;;;;;;5.00;1.90;;;;;;;18.32;42.71;102520.69;5063882;28;20032;-63
2022/10/11 05:33:26;;;;;;;4.28;1.55;;;;;;;18.30;42.66;102520.75;5063706;28;20021;-64
2022/10/11 05:35:51;;;;;;;5.20;2.25;;;;;;;18.34;42.76;102526.75;5063203;28;20491;-64
2022/10/11 05:38:18;;;;;;;4.07;1.55;;;;;;;18.38;42.66;102522.13;5063822;28;20033;-63
2022/10/11 05:40:43;;;;;;;4.50;1.85;;;;;;;18.42;42.82;102532.44;5062142;28;20481;-65
2022/10/11 05:43:09;;;;;;;3.58;1.50;;;;;;;18.48;42.76;102537.38;5063623;28;20089;-65
2022/10/11 05:45:37;;;;;;;4.70;2.00;;;;;;;18.53;42.89;102547.66;5062261;28;20033;-65
2022/10/11 05:48:02;;;;;;;5.13;2.03;;;;;;;18.52;42.93;102542.47;5063271;28;20495;-63
2022/10/11 05:50:27;;;;;;;3.28;1.50;;;;;;;18.58;42.86;102543.00;5063427;28;20028;-64
2022/10/11 05:52:53;;;;;;;5.90;1.50;;;;;;;18.58;42.66;102535.06;5063789;28;20544;-64
2022/10/11 05:55:18;;;;;;;4.22;1.75;;;;;;;18.68;42.65;102552.09;5063382;28;20326;-64
2022/10/11 05:57:43;;;;;;;4.43;1.50;;;;;;;18.64;42.88;102533.84;5063288;28;20044;-64
2022/10/11 06:00:09;;;;;;;3.95;1.80;;;;;;;18.73;42.84;102549.19;5063209;28;20264;-65
2022/10/11 06:02:35;;;;;;;4.30;1.60;;;;;;;18.70;42.63;102544.06;5063148;28;20075;-65
2022/10/11 06:05:00;;;;;;;4.28;1.70;;;;;;;18.79;42.65;102563.84;5061820;28;20036;-65
2022/10/11 06:07:25;;;;;;;4.85;1.92;;;;;;;18.78;42.75;102559.50;5063167;28;20964;-65
2022/10/11 06:09:51;;;;;;;4.43;1.70;;;;;;;18.72;42.41;102547.47;5063130;28;20054;-66
2022/10/11 06:12:17;;;;;;;4.65;1.83;;;;;;;18.76;42.38;102559.56;5063078;28;20299;-65
2022/10/11 06:14:42;;;;;;;5.30;1.80;;;;;;;18.79;42.32;102561.22;5063162;28;20036;-64
2022/10/11 06:17:08;;;;;;;5.03;1.70;;;;;;;18.86;42.29;102567.84;5062725;28;20089;-68
2022/10/11 06:19:33;;;;;;;3.88;1.50;;;;;;;18.81;41.87;102559.31;5062982;28;20412;-66
2022/10/11 06:21:59;;;;;;;3.90;1.60;;;;;;;18.88;42.07;102570.41;5062804;28;20033;-67
2022/10/11 06:24:24;;;;;;;5.15;1.60;;;;;;;18.85;42.13;102579.38;5062688;28;20567;-63
2022/10/11 06:26:49;;;;;;;5.83;1.73;;;;;;;18.78;42.32;102560.34;5062686;28;20109;-64
2022/10/11 06:29:15;;;;;;;5.40;1.88;;;;;;;18.85;42.38;102582.88;5062877;28;20261;-63
2022/10/11 06:31:40;;;;;;;3.80;1.57;;;;;;;18.80;42.65;102570.81;5062567;28;20024;-66
2022/10/11 06:34:05;;;;;;;5.90;1.80;;;;;;;18.86;42.43;102586.34;5062163;28;20254;-63
2022/10/11 06:36:30;;;;;;;4.13;1.70;;;;;;;18.83;42.61;102578.56;5062747;28;20729;-62
2022/10/11 06:38:56;;;;;;;5.05;1.88;;;;;;;18.85;42.78;102588.16;5062494;28;20265;-63
2022/10/11 06:41:26;;;;;;;5.90;1.92;;;;;;;18.77;42.78;102573.63;5062531;28;20036;-63
2022/10/11 06:43:51;;;;;;;5.50;1.70;;;;;;;18.79;42.87;102571.78;5062468;28;20033;-63
2022/10/11 06:46:18;;;;;;;4.57;1.60;;;;;;;18.79;42.71;102580.53;5062335;28;20194;-61
2022/10/11 06:48:45;;;;;;;4.05;1.70;;;;;;;18.83;42.68;102590.00;5062323;28;20032;-67
2022/10/11 06:51:12;;;;;;;5.72;2.10;;;;;;;18.77;43.17;102579.78;5062372;28;20499;-71
2022/10/11 06:53:38;;;;;;;4.43;2.08;;;;;;;18.83;43.10;102587.38;5062426;28;20016;-69
2022/10/11 06:56:06;;;;;;;8.25;2.10;;;;;;;18.76;43.24;102593.91;5061983;28;20036;-69
2022/10/11 06:58:32;;;;;;;5.60;2.13;;;;;;;18.83;43.31;102597.94;5061949;28;20455;-66
2022/10/11 07:01:02;;;;;;;3.65;1.63;;;;;;;18.84;43.45;102604.94;5061984;28;20113;-67
2022/10/11 07:03:29;;;;;;;7.20;1.77;;;;;;;18.85;43.83;102601.34;5061769;28;20039;-67
2022/10/11 07:06:09;;;;;;;7.18;1.65;;;;;;;18.88;43.51;102605.59;5060571;28;20043;-68
2022/10/11 07:08:35;;;;;;;5.32;1.90;;;;;;;18.81;43.62;102599.78;5058244;28;20545;-66
2022/10/11 07:11:10;;;;;;;5.95;2.08;;;;;;;18.89;43.67;102607.31;5061090;28;20028;-68
2022/10/11 07:13:36;;;;;;;3.97;1.75;;;;;;;18.83;43.76;102603.22;5061164;28;20107;-70
2022/10/11 07:16:07;;;;;;;6.30;1.80;;;;;;;18.86;43.43;102610.13;5061121;28;20457;-69
2022/10/11 07:18:33;;;;;;;5.07;1.67;;;;;;;18.88;43.76;102612.69;5061136;28;20086;-68
2022/10/11 07:21:02;;;;;;;4.50;1.70;;;;;;;18.97;43.47;102614.81;5061542;28;20119;-74
2022/10/11 07:23:27;;;;;;;6.55;2.10;;;;;;;19.01;43.36;102619.81;5061348;28;20127;-69
2022/10/11 07:25:53;;;;;;;7.57;2.10;;;;;;;19.05;43.22;102623.13;5060804;28;20107;-69
2022/10/11 07:28:22;;;;;;;7.05;1.75;;;;;;;19.01;43.51;102614.53;5061325;28;20477;-69
2022/10/11 07:30:48;;;;;;;5.25;1.98;;;;;;;19.14;43.20;102617.31;5061341;28;20131;-68
2022/10/11 07:33:13;;;;;;;5.70;2.10;;;;;;;19.10;43.08;102618.44;5060936;28;20114;-67
2022/10/11 07:35:39;;;;;;;5.15;1.80;;;;;;;19.20;43.04;102640.78;5060901;28;20050;-68
2022/10/11 07:38:05;;;;;;;6.05;1.95;;;;;;;19.24;42.97;102632.66;5060647;28;20485;-67
2022/10/11 07:40:32;;;;;;;6.07;2.10;;;;;;;19.23;42.61;102623.84;5060906;28;20046;-67
2022/10/11 07:42:57;;;;;;;5.70;2.15;;;;;;;19.23;42.75;102618.56;5061099;28;20027;-70
2022/10/11 07:45:24;;;;;;;6.32;2.15;;;;;;;19.30;42.87;102621.75;5060523;28;20024;-71
2022/10/11 07:47:49;;;;;;;8.35;2.13;;;;;;;19.37;42.46;102631.84;5060535;28;20432;-66
2022/10/11 07:50:15;;;;;;;5.38;2.08;;;;;;;19.36;42.82;102637.25;5059821;28;20053;-68
2022/10/11 07:52:40;;;;;;;4.72;1.60;;;;;;;19.24;42.89;102612.34;5059590;28;20025;-70
2022/10/11 07:55:06;;;;;;;5.80;1.90;;;;;;;19.28;42.95;102629.75;5060115;28;20036;-67
2022/10/11 07:57:31;;;;;;;5.63;1.95;;;;;;;19.27;43.23;102630.69;5060481;28;20269;-67
2022/10/11 07:59:57;;;;;;;5.90;1.88;;;;;;;19.20;43.37;102635.47;5060616;28;20036;-70
2022/10/11 08:02:22;;;;;;;4.88;1.80;;;;;;;19.24;43.31;102646.72;5061707;28;20024;-67
2022/10/11 08:04:47;;;;;;;5.80;2.10;;;;;;;19.16;43.61;102633.94;5060214;28;20193;-67
2022/10/11 08:07:12;;;;;;;3.90;2.00;;;;;;;19.15;43.50;102634.03;5061285;28;20760;-68
2022/10/11 08:09:38;;;;;;;5.03;1.75;;;;;;;19.17;43.68;102638.31;5061386;28;20326;-68
2022/10/11 08:12:03;;;;;;;4.80;1.83;;;;;;;19.06;43.87;102626.63;5061494;28;20032;-70
2022/10/11 08:14:28;;;;;;;4.53;1.90;;;;;;;19.13;43.84;102642.03;5061553;28;20090;-67
2022/10/11 08:16:53;;;;;;;4.45;1.60;;;;;;;19.10;44.00;102636.09;5061501;28;20134;-70
2022/10/11 08:19:19;;;;;;;4.40;1.90;;;;;;;19.10;44.12;102641.38;5065457;28;20695;-67
2022/10/11 08:21:44;;;;;;;5.93;1.80;;;;;;;19.09;44.02;102643.19;5065504;28;20356;-68
2022/10/11 08:24:12;;;;;;;6.57;1.80;;;;;;;19.09;44.01;102644.94;5065710;28;20116;-66
2022/10/11 08:26:38;;;;;;;4.75;1.80;;;;;;;19.16;44.30;102654.25;5064954;28;20053;-70
2022/10/11 08:29:04;;;;;;;3.88;1.70;;;;;;;19.08;44.33;102643.25;5065121;28;20808;-66
2022/10/11 08:31:30;;;;;;;4.55;2.00;;;;;;;19.07;44.36;102647.69;5065227;28;20127;-66
2022/10/11 08:33:56;;;;;;;5.63;1.83;;;;;;;19.09;44.55;102648.47;5065167;28;20039;-67
2022/10/11 08:36:21;;;;;;;3.58;1.67;;;;;;;19.09;44.72;102653.75;5065516;28;20040;-68
2022/10/11 08:38:46;;;;;;;7.90;1.83;;;;;;;19.14;44.51;102662.25;5063208;28;20085;-65
2022/10/11 08:41:24;;;;;;;4.07;1.75;;;;;;;19.13;44.55;102663.19;5065018;28;20060;-68
2022/10/11 08:44:18;;;;;;;5.38;1.70;;;;;;;19.15;44.71;102660.47;5065034;28;20020;-68
2022/10/11 08:46:49;;;;;;;4.10;1.63;;;;;;;19.16;44.79;102657.72;5064498;28;20043;-67
2022/10/11 08:49:18;;;;;;;5.05;1.88;;;;;;;19.15;44.89;102656.03;5064855;28;20079;-67
2022/10/11 08:51:51;;;;;;;6.32;2.08;;;;;;;19.17;44.74;102662.09;5064721;28;20368;-67
2022/10/11 08:54:27;;;;;;;3.92;1.40;;;;;;;19.13;44.87;102657.91;5065007;28;20021;-67
2022/10/11 08:56:53;;;;;;;4.75;1.55;;;;;;;19.16;44.91;102664.81;5064958;28;20043;-66
2022/10/11 08:59:43;;;;;;;4.68;1.67;;;;;;;19.18;44.75;102669.09;5064664;28;20032;-66
2022/10/11 09:02:33;;;;;;;4.80;1.48;;;;;;;19.20;44.91;102679.53;5064653;28;20064;-68
2022/10/11 09:05:00;;;;;;;7.03;2.00;;;;;;;19.15;45.14;102671.03;5064842;28;20024;-67
2022/10/11 09:08:07;;;;;;;4.82;1.52;;;;;;;19.20;44.94;102675.13;5064102;28;20029;-68
2022/10/11 09:10:57;;;;;;;4.15;1.60;;;;;;;19.15;45.13;102661.34;5074143;28;20046;-67
2022/10/11 09:13:40;;;;;;;4.57;1.50;;;;;;;19.14;44.91;102666.69;5064945;28;20040;-66
2022/10/11 09:16:27;;;;;;;4.70;1.63;;;;;;;19.23;45.22;102682.00;5064036;28;20029;-66
2022/10/11 09:19:23;;;;;;;5.78;1.52;;;;;;;19.24;45.26;102683.72;5064352;28;20024;-67
2022/10/11 09:22:07;;;;;;;4.82;1.60;;;;;;;19.26;45.19;102683.63;5064344;28;20119;-65
2022/10/11 09:25:00;;;;;;;4.30;1.48;;;;;;;19.26;45.19;102687.13;5064052;28;20032;-66
2022/10/11 09:27:42;;;;;;;3.78;1.33;;;;;;;19.26;45.00;102684.47;5063532;28;20581;-68
2022/10/11 09:30:14;;;;;;;4.63;1.58;;;;;;;19.25;45.06;102680.16;5063576;28;21018;-68
2022/10/11 09:32:44;;;;;;;4.70;1.52;;;;;;;19.24;45.22;102672.31;5063945;28;20036;-69
2022/10/11 09:35:18;;;;;;;6.40;1.50;;;;;;;19.24;45.35;102670.50;5063821;28;20036;-69
2022/10/11 09:38:12;;;;;;;4.13;1.23;;;;;;;19.30;45.13;102680.72;5063792;28;20559;-67
2022/10/11 09:40:49;;;;;;;4.53;1.40;;;;;;;19.32;45.27;102683.28;5063877;28;20054;-70
2022/10/11 09:43:14;;;;;;;4.32;1.50;;;;;;;19.34;45.19;102681.41;5063770;28;20614;-66
2022/10/11 09:45:43;;;;;;;4.47;1.38;;;;;;;19.26;45.33;102665.97;5063556;28;20023;-70
2022/10/11 09:48:15;;;;;;;4.63;1.45;;;;;;;19.22;45.33;102659.19;5063570;28;20439;-69
2022/10/11 09:50:41;;;;;;;4.55;1.63;;;;;;;19.29;45.36;102668.44;5063656;28;20043;-69
2022/10/11 09:53:07;;;;;;;4.65;1.42;;;;;;;19.24;45.13;102656.44;5063661;28;20106;-67
2022/10/11 09:55:34;;;;;;;5.23;1.23;;;;;;;19.37;45.32;102675.94;5063784;28;20028;-66
2022/10/11 09:58:00;;;;;;;3.17;1.58;;;;;;;19.30;45.38;102666.69;5063450;28;20280;-69
2022/10/11 10:00:33;;;;;;;3.60;1.30;;;;;;;19.38;45.24;102682.94;5063542;28;20036;-67
2022/10/11 10:03:03;;;;;;;3.67;1.50;;;;;;;19.37;45.15;102679.44;5063350;28;20029;-66
2022/10/11 10:05:35;;;;;;;3.22;1.30;;;;;;;19.35;45.28;102675.19;5062959;28;20032;-67
2022/10/11 10:08:10;;;;;;;3.55;1.20;;;;;;;19.42;45.12;102681.81;5063294;28;20044;-67
2022/10/11 10:10:41;;;;;;;4.30;1.20;;;;;;;19.38;45.53;102675.00;5061191;28;20147;-69
2022/10/11 10:13:22;;;;;;;7.20;1.35;;;;;;;19.32;45.58;102673.56;5062087;28;20439;-69
2022/10/11 10:15:52;;;;;;;5.40;1.33;;;;;;;19.32;45.35;102678.84;5062462;28;20040;-69
2022/10/11 10:18:21;;;;;;;6.57;1.58;;;;;;;19.33;45.40;102679.72;5062366;28;20048;-67
2022/10/11 10:20:51;;;;;;;4.90;1.20;;;;;;;19.32;45.28;102678.00;5062240;28;20422;-67
2022/10/11 10:23:29;;;;;;;4.82;1.17;;;;;;;19.40;45.23;102675.75;5061665;28;20036;-66
2022/10/11 10:26:18;;;;;;;3.67;1.00;;;;;;;19.43;44.97;102675.59;5061030;28;20514;-71
2022/10/11 10:28:57;;;;;;;5.75;1.20;;;;;;;19.32;44.48;102646.28;5062979;28;20039;-66
2022/10/11 10:31:34;;;;;;;5.60;1.40;;;;;;;19.45;45.04;102670.22;5062763;28;20055;-67
2022/10/11 10:34:01;;;;;;;4.45;1.23;;;;;;;19.46;45.03;102674.56;5062715;28;20486;-65
2022/10/11 10:36:31;;;;;;;4.15;1.25;;;;;;;19.46;44.83;102662.19;5062401;28;20040;-66
2022/10/11 10:39:13;;;;;;;5.65;1.40;;;;;;;19.43;44.90;102658.88;5062970;28;20070;-65
2022/10/11 10:41:39;;;;;;;8.55;1.35;;;;;;;19.50;45.05;102671.66;5062050;28;20023;-65
2022/10/11 10:44:04;;;;;;;4.63;1.10;;;;;;;19.49;44.69;102663.81;5062239;28;20037;-67
2022/10/11 10:46:35;;;;;;;3.97;1.38;;;;;;;19.55;44.88;102674.88;5062368;28;20039;-66
2022/10/11 10:49:15;;;;;;;4.75;1.20;;;;;;;19.52;44.88;102668.94;5062261;28;20037;-67
2022/10/11 10:52:32;;;;;;;5.82;1.20;;;;;;;19.55;44.99;102666.94;5062354;28;20033;-66
2022/10/11 10:55:06;;;;;;;3.85;1.17;;;;;;;19.54;44.91;102664.38;5041896;28;20048;-70
2022/10/11 10:57:40;;;;;;;4.10;1.35;;;;;;;19.60;44.97;102668.44;5061316;28;20037;-67
2022/10/11 11:00:20;;;;;;;6.13;1.45;;;;;;;19.58;45.29;102655.31;5061558;28;20040;-66
2022/10/11 11:02:49;;;;;;;5.03;1.30;;;;;;;19.55;45.02;102640.50;5061556;28;20106;-65
2022/10/11 11:05:44;;;;;;;4.03;1.25;;;;;;;19.67;44.69;102661.88;5061368;28;20465;-66
2022/10/11 11:08:28;;;;;;;4.80;1.20;;;;;;;19.69;45.03;102658.22;5061299;28;20024;-67
2022/10/11 11:10:53;;;;;;;3.13;1.00;;;;;;;19.73;44.70;102665.00;5061431;28;20131;-67
2022/10/11 11:13:42;;;;;;;5.77;1.30;;;;;;;19.75;44.57;102657.81;5061529;28;20108;-69
2022/10/11 11:16:16;;;;;;;5.70;1.10;;;;;;;19.73;44.64;102645.63;5061140;28;20470;-68
2022/10/11 11:18:56;;;;;;;3.75;1.10;;;;;;;19.71;44.76;102637.78;5061544;28;20032;-69
2022/10/11 11:21:40;;;;;;;7.43;1.30;;;;;;;19.85;44.64;102655.53;5061157;28;20037;-67
2022/10/11 11:24:36;;;;;;;3.70;0.90;;;;;;;19.86;44.48;102648.44;5060970;28;20157;-68
2022/10/11 11:27:25;;;;;;;3.15;1.05;;;;;;;19.87;44.37;102648.34;5060528;28;20041;-65
2022/10/11 11:30:12;;;;;;;4.20;1.08;;;;;;;19.90;44.33;102647.28;5060946;28;20043;-68
2022/10/11 11:32:51;;;;;;;4.95;1.35;;;;;;;19.91;44.34;102646.34;5060945;28;20535;-70
2022/10/11 11:35:29;;;;;;;5.00;1.48;;;;;;;19.85;44.49;102638.78;5060666;28;20176;-66
2022/10/11 11:38:08;;;;;;;5.93;1.40;;;;;;;19.96;44.38;102646.06;5060900;28;20036;-68
2022/10/11 11:40:41;;;;;;;4.82;1.27;;;;;;;19.93;44.19;102629.44;5061020;28;20077;-68